Time;durP1;ratioP1;P1;durP2;ratioP2;P2;SDS_P1;SDS_P2;PMS_P1;PMS_P2;Temp;Humidity;BMP_temperature;BMP_pressure;BME280_temperature;BME280_humidity;BME280_pressure;Samples;Min_cycle;Max_cycle;Signal;HPM_P1;HPM_P2
2022/08/08 00:00:42;;;;;;;;;24.50;21.00;;;;;23.75;39.62;101996.69;5091599;27;45353;-67
2022/08/08 00:03:46;;;;;;;;;23.50;21.00;;;;;23.77;38.98;102005.66;5082803;27;45559;-68
2022/08/08 00:06:21;;;;;;;;;23.25;17.75;;;;;23.81;38.77;101995.03;5065607;27;45483;-68
2022/08/08 00:09:03;;;;;;;;;19.25;14.25;;;;;23.67;39.88;101994.06;5090548;27;46218;-67
2022/08/08 00:11:39;;;;;;;;;12.00;11.67;;;;;23.54;40.49;102000.41;5097730;27;45416;-67
2022/08/08 00:14:22;;;;;;;;;9.67;9.00;;;;;23.42;40.85;101998.38;5091745;27;46655;-67
2022/08/08 00:17:01;;;;;;;;;9.33;8.67;;;;;23.47;40.51;101996.69;5090293;27;45264;-67
2022/08/08 00:19:39;;;;;;;;;9.67;9.67;;;;;23.39;40.78;101999.63;5094564;27;45501;-67
2022/08/08 00:22:27;;;;;;;;;8.67;8.33;;;;;23.35;41.03;101984.47;5083159;27;45314;-67
2022/08/08 00:25:07;;;;;;;;;7.00;7.00;;;;;23.29;41.00;102002.78;5089856;27;45322;-68
2022/08/08 00:27:36;;;;;;;;;8.00;8.00;;;;;23.32;41.23;101997.84;5088966;27;45493;-68
2022/08/08 00:30:07;;;;;;;;;6.00;6.00;;;;;23.37;41.57;101998.13;5073411;27;48364;-68
2022/08/08 00:32:42;;;;;;;;;4.33;4.33;;;;;23.31;41.78;101991.44;5094063;27;45458;-69
2022/08/08 00:35:45;;;;;;;;;6.33;6.33;;;;;23.21;42.21;101989.06;5092178;27;45270;-68
2022/08/08 00:38:33;;;;;;;;;7.00;5.00;;;;;23.14;42.50;101993.69;5092626;27;45298;-68
2022/08/08 00:41:31;;;;;;;;;6.00;6.00;;;;;23.13;42.56;101983.66;5087499;27;45337;-68
2022/08/08 00:44:05;;;;;;;;;9.33;7.00;;;;;23.04;42.44;101981.22;5087854;27;45451;-68
2022/08/08 00:46:34;;;;;;;;;7.67;7.67;;;;;23.06;42.32;101988.28;5086067;27;45341;-68
2022/08/08 00:49:21;;;;;;;;;5.00;5.00;;;;;23.01;42.65;101989.94;5088934;27;45346;-68
2022/08/08 00:51:55;;;;;;;;;6.67;6.67;;;;;22.88;42.75;101985.13;5082199;27;46386;-67
2022/08/08 00:54:39;;;;;;;;;5.33;5.33;;;;;22.78;43.83;101984.63;5089797;27;45441;-68
2022/08/08 00:57:16;;;;;;;;;7.00;5.00;;;;;22.83;43.40;101982.97;5083224;27;45492;-68
2022/08/08 01:00:04;;;;;;;;;7.00;5.33;;;;;22.94;43.08;101987.09;5073479;27;45435;-68
2022/08/08 01:02:51;;;;;;;;;8.67;6.00;;;;;22.82;44.21;101977.63;5099268;27;45587;-68
2022/08/08 01:05:31;;;;;;;;;5.00;5.00;;;;;22.70;44.78;101979.19;5097107;27;45567;-68
2022/08/08 01:08:34;;;;;;;;;5.00;4.33;;;;;22.78;44.29;101977.16;5085593;27;45294;-68
2022/08/08 01:11:11;;;;;;;;;4.67;4.67;;;;;22.77;44.41;101975.44;5088113;27;45575;-68
2022/08/08 01:13:55;;;;;;;;;5.33;5.00;;;;;22.63;44.47;101972.72;5069040;28;45455;-68
2022/08/08 01:16:45;;;;;;;;;5.00;5.00;;;;;22.64;44.40;101969.75;5088445;27;45357;-68
2022/08/08 01:19:38;;;;;;;;;6.00;4.67;;;;;22.50;45.40;101967.91;5088490;27;45460;-69
2022/08/08 01:22:19;;;;;;;;;6.00;4.00;;;;;22.51;45.06;101970.47;5066507;27;45518;-68
2022/08/08 01:25:00;;;;;;;;;4.00;3.67;;;;;22.50;44.49;101968.75;5074647;27;47377;-68
2022/08/08 01:27:29;;;;;;;;;5.33;5.33;;;;;22.47;45.49;101969.16;5085919;27;45378;-68
2022/08/08 01:30:06;;;;;;;;;6.33;6.00;;;;;22.40;45.58;101973.75;5072426;27;45345;-68
2022/08/08 01:32:59;;;;;;;;;6.00;6.00;;;;;22.45;45.42;101971.25;5094091;27;45517;-68
2022/08/08 01:35:43;;;;;;;;;6.33;4.67;;;;;22.37;45.94;101968.59;5098484;27;45358;-68
2022/08/08 01:38:32;;;;;;;;;4.67;4.67;;;;;22.35;46.00;101967.97;5092733;27;45275;-70
2022/08/08 01:41:01;;;;;;;;;6.00;5.00;;;;;22.44;46.30;101968.66;5096833;27;46655;-68
2022/08/08 01:43:47;;;;;;;;;6.00;4.00;;;;;22.40;45.79;101971.00;5091541;27;45397;-68
2022/08/08 01:46:38;;;;;;;;;6.33;5.33;;;;;22.31;46.38;101968.53;5086954;27;45336;-68
2022/08/08 01:49:20;;;;;;;;;6.33;5.67;;;;;22.15;46.55;101966.84;5099792;27;45329;-68
2022/08/08 01:51:59;;;;;;;;;7.67;6.00;;;;;22.32;46.78;101981.31;5086011;27;45247;-68
2022/08/08 01:55:02;;;;;;;;;8.00;6.33;;;;;22.39;45.63;101974.81;5096902;27;45477;-68
2022/08/08 01:57:30;;;;;;;;;5.00;5.00;;;;;22.36;46.62;101977.09;5087853;27;45422;-68
2022/08/08 02:00:02;;;;;;;;;5.00;5.00;;;;;22.26;46.65;101973.81;5100513;27;45346;-68
2022/08/08 02:02:30;;;;;;;;;6.33;6.33;;;;;22.22;46.85;101970.56;5068595;27;45484;-68
2022/08/08 02:05:01;;;;;;;;;6.33;5.33;;;;;22.10;47.26;101974.91;5104539;27;45400;-68
2022/08/08 02:07:27;;;;;;;;;6.00;5.00;;;;;22.19;46.75;101970.09;5076884;27;48221;-68
2022/08/08 02:10:10;;;;;;;;;7.33;4.67;;;;;22.19;47.40;101973.72;5097276;27;45484;-68
2022/08/08 02:12:51;;;;;;;;;5.67;5.00;;;;;22.14;47.44;101973.44;5094943;27;45161;-68
2022/08/08 02:15:44;;;;;;;;;8.33;6.33;;;;;22.02;48.00;101978.63;5092898;27;45476;-68
2022/08/08 02:18:12;;;;;;;;;5.67;5.67;;;;;22.12;46.77;101970.88;5089179;27;45408;-68
2022/08/08 02:23:58;;;;;;;;;6.00;6.00;;;;;22.07;48.47;101973.34;5089552;27;45873;-68
2022/08/08 02:26:28;;;;;;;;;6.67;6.00;;;;;21.95;48.59;101965.72;5091372;27;45484;-68
2022/08/08 02:29:20;;;;;;;;;2.67;2.00;;;;;21.82;48.94;101968.31;5091719;27;46180;-68
2022/08/08 02:32:09;;;;;;;;;6.33;5.67;;;;;21.94;48.54;101969.53;5085546;27;45410;-68
2022/08/08 02:35:12;;;;;;;;;10.33;7.00;;;;;21.74;49.69;101964.63;5090011;27;45382;-68
2022/08/08 02:38:16;;;;;;;;;7.00;6.00;;;;;21.80;49.03;101975.94;5089472;27;45705;-68
2022/08/08 02:41:19;;;;;;;;;6.00;6.00;;;;;21.69;49.66;101975.41;5045516;28;47545;-68
2022/08/08 02:44:15;;;;;;;;;7.67;7.67;;;;;21.72;49.79;101979.69;5072798;27;45412;-68
2022/08/08 02:46:59;;;;;;;;;6.67;6.67;;;;;21.72;49.67;101975.00;5102674;27;45317;-68
2022/08/08 02:49:27;;;;;;;;;7.00;7.00;;;;;21.61;50.16;101980.19;5093732;27;45721;-68
2022/08/08 02:52:17;;;;;;;;;8.00;7.67;;;;;21.68;50.14;101979.22;5076379;27;46616;-68
2022/08/08 02:55:01;;;;;;;;;7.00;7.00;;;;;21.70;49.78;101973.47;5093086;27;45544;-68
2022/08/08 02:57:35;;;;;;;;;7.33;7.00;;;;;21.64;50.44;101972.34;5094411;27;45385;-67
2022/08/08 03:00:16;;;;;;;;;9.33;8.00;;;;;21.65;49.84;101979.59;5096150;27;45342;-67
2022/08/08 03:02:58;;;;;;;;;7.00;7.00;;;;;21.67;49.93;101974.72;5097950;27;46033;-67
2022/08/08 03:05:45;;;;;;;;;5.67;5.67;;;;;21.50;50.85;101975.09;5079879;27;45342;-68
2022/08/08 03:08:52;;;;;;;;;7.33;7.33;;;;;21.65;50.26;101976.81;5090130;27;45393;-68
2022/08/08 03:11:56;;;;;;;;;9.00;7.33;;;;;21.56;51.39;101980.72;5084515;28;45528;-68
2022/08/08 03:15:11;;;;;;;;;6.33;6.33;;;;;21.45;50.82;101978.44;5092266;27;46281;-68
2022/08/08 03:18:04;;;;;;;;;8.33;8.33;;;;;21.52;51.03;101973.88;5006576;28;45355;-68
2022/08/08 03:20:46;;;;;;;;;9.67;8.67;;;;;21.40;51.47;101980.94;5012688;28;45545;-67
2022/08/08 03:23:11;;;;;;;;;9.00;9.00;;;;;21.40;51.87;101982.84;5071385;27;45469;-68
2022/08/08 03:25:38;;;;;;;;;7.00;5.00;;;;;21.33;52.19;101985.50;5075246;27;47436;-68
2022/08/08 03:28:09;;;;;;;;;6.00;6.00;;;;;21.38;51.91;101979.41;5100154;27;47619;-68
2022/08/08 03:30:34;;;;;;;;;10.33;7.00;;;;;21.41;51.96;101982.63;5090168;27;45224;-68
2022/08/08 03:33:18;;;;;;;;;5.67;5.33;;;;;21.43;51.33;101983.31;5087087;27;45281;-68
2022/08/08 03:35:46;;;;;;;;;8.67;7.67;;;;;21.55;51.19;101984.53;5094780;27;46253;-68
2022/08/08 03:38:11;;;;;;;;;8.33;8.33;;;;;21.51;51.70;101988.75;5089781;27;45461;-68
2022/08/08 03:40:37;;;;;;;;;7.67;7.67;;;;;21.61;51.27;101986.56;5093626;27;45226;-68
2022/08/08 03:43:05;;;;;;;;;8.00;8.00;;;;;21.59;50.46;101983.13;5095462;27;45563;-68
2022/08/08 03:45:31;;;;;;;;;8.67;8.00;;;;;21.60;50.72;101986.75;5093863;27;46835;-68
2022/08/08 03:47:57;;;;;;;;;10.33;8.00;;;;;21.64;50.89;101988.94;5087337;27;45338;-68
2022/08/08 03:50:24;;;;;;;;;8.00;8.00;;;;;21.53;51.25;101986.66;5092970;27;45422;-68
2022/08/08 03:52:49;;;;;;;;;8.00;8.00;;;;;21.59;50.71;101990.56;5076816;28;45678;-68
2022/08/08 03:55:17;;;;;;;;;10.00;9.00;;;;;21.60;51.31;101998.69;5079856;27;48330;-68
2022/08/08 03:57:45;;;;;;;;;9.00;8.00;;;;;21.52;51.76;101996.00;5100824;27;45697;-68
2022/08/08 04:00:13;;;;;;;;;8.00;8.00;;;;;21.56;50.19;102002.00;5095661;27;45345;-68
2022/08/08 04:02:39;;;;;;;;;9.00;9.00;;;;;21.44;51.56;101993.31;5068047;27;45340;-68
2022/08/08 04:05:05;;;;;;;;;9.33;9.33;;;;;21.43;51.82;101991.59;5094675;27;46118;-68
2022/08/08 04:07:40;;;;;;;;;8.33;8.33;;;;;21.30;52.02;101996.94;5086029;27;45287;-69
2022/08/08 04:10:07;;;;;;;;;9.67;9.67;;;;;21.38;51.69;101991.31;5098019;27;45350;-68
2022/08/08 04:12:33;;;;;;;;;11.67;11.67;;;;;21.36;52.93;102001.69;5100580;27;45180;-67
2022/08/08 04:14:59;;;;;;;;;10.33;10.00;;;;;21.17;53.19;102010.53;5095605;27;46493;-67
2022/08/08 04:17:24;;;;;;;;;12.00;10.67;;;;;21.24;52.95;102011.50;5085069;27;45417;-67
2022/08/08 04:19:50;;;;;;;;;9.00;9.00;;;;;21.05;53.34;102010.06;5072888;28;45462;-68
2022/08/08 04:22:15;;;;;;;;;13.33;11.67;;;;;20.98;54.02;102009.09;5088964;27;45260;-67
2022/08/08 04:24:40;;;;;;;;;11.33;10.00;;;;;21.01;53.94;102005.97;5091408;27;45534;-67
2022/08/08 04:27:06;;;;;;;;;12.67;11.00;;;;;21.05;54.02;102020.28;5101796;27;45568;-68
2022/08/08 04:29:31;;;;;;;;;13.67;10.67;;;;;21.06;54.04;102005.41;5094379;27;45667;-67
2022/08/08 04:31:57;;;;;;;;;10.00;10.00;;;;;21.06;54.01;102011.81;5085041;27;45579;-68
2022/08/08 04:34:22;;;;;;;;;13.33;12.67;;;;;21.05;53.92;102014.75;5078957;27;47770;-68
2022/08/08 04:36:47;;;;;;;;;11.00;11.00;;;;;21.03;54.04;102016.84;5066809;28;45361;-68
2022/08/08 04:39:13;;;;;;;;;12.67;12.67;;;;;20.98;53.96;102009.97;5087618;27;45868;-68
2022/08/08 04:41:38;;;;;;;;;14.00;9.67;;;;;20.95;54.35;102015.03;5088095;27;45714;-68
2022/08/08 04:44:04;;;;;;;;;11.33;9.00;;;;;21.01;54.48;102018.94;5089315;27;45488;-68
2022/08/08 04:46:31;;;;;;;;;12.00;12.00;;;;;20.98;54.47;102015.50;5084470;27;45280;-68
2022/08/08 04:48:56;;;;;;;;;13.33;12.00;;;;;20.97;54.44;102021.19;5086475;27;45448;-67
2022/08/08 04:51:21;;;;;;;;;10.00;10.00;;;;;21.01;54.60;102021.69;5083816;27;45413;-68
2022/08/08 04:53:47;;;;;;;;;12.67;12.00;;;;;20.85;54.93;102029.06;5088533;27;46441;-68
2022/08/08 04:56:12;;;;;;;;;14.33;13.67;;;;;20.99;53.85;102021.88;5091526;27;45218;-68
2022/08/08 04:58:38;;;;;;;;;10.00;10.00;;;;;21.12;53.28;102026.75;5086653;27;45486;-68
2022/08/08 05:01:03;;;;;;;;;12.33;12.33;;;;;21.06;53.96;102027.53;5099351;27;45328;-68
2022/08/08 05:03:28;;;;;;;;;10.00;8.67;;;;;20.86;55.07;102025.28;5099380;27;46485;-70
2022/08/08 05:05:54;;;;;;;;;9.67;9.67;;;;;21.04;54.41;102040.69;5096336;27;45503;-68
2022/08/08 05:08:19;;;;;;;;;11.00;11.00;;;;;21.10;54.03;102029.75;5090719;27;46088;-67
2022/08/08 05:10:44;;;;;;;;;10.67;9.67;;;;;21.05;54.36;102032.19;5093584;27;45524;-68
2022/08/08 05:13:10;;;;;;;;;13.50;13.25;;;;;20.81;55.50;102047.06;5089107;27;45506;-68
2022/08/08 05:15:35;;;;;;;;;13.00;10.00;;;;;21.06;54.57;102042.19;5064173;28;45428;-68
2022/08/08 05:18:00;;;;;;;;;15.67;14.00;;;;;21.20;53.91;102040.56;5090144;27;45824;-68
2022/08/08 05:20:26;;;;;;;;;16.33;14.33;;;;;21.18;53.95;102037.13;5089883;27;45338;-68
2022/08/08 05:22:51;;;;;;;;;12.33;10.00;;;;;21.21;54.06;102036.75;5087977;27;46344;-68
2022/08/08 05:25:17;;;;;;;;;13.25;13.00;;;;;21.23;53.84;102040.19;5092298;27;45524;-68
2022/08/08 05:27:42;;;;;;;;;13.67;12.00;;;;;21.12;54.46;102043.34;5076966;27;45433;-68
2022/08/08 05:30:11;;;;;;;;;13.67;13.67;;;;;21.21;54.56;102047.81;5090220;27;45226;-68
2022/08/08 05:32:38;;;;;;;;;8.00;8.00;;;;;21.18;54.70;102053.72;5092234;27;46668;-68
2022/08/08 05:35:04;;;;;;;;;13.00;13.00;;;;;21.14;54.60;102058.72;5083073;27;45693;-68
2022/08/08 05:37:31;;;;;;;;;15.00;13.67;;;;;21.26;54.08;102057.25;5079394;27;45476;-68
2022/08/08 05:40:03;;;;;;;;;13.67;11.00;;;;;21.35;53.88;102058.03;5101154;27;45291;-68
2022/08/08 05:42:38;;;;;;;;;13.00;12.67;;;;;21.42;53.72;102060.91;5100569;27;46148;-68
2022/08/08 05:45:04;;;;;;;;;12.00;11.00;;;;;21.59;53.38;102056.94;5089581;27;45318;-68
2022/08/08 05:47:30;;;;;;;;;11.00;10.00;;;;;22.62;49.92;102052.19;5088054;27;45302;-68
2022/08/08 05:49:57;;;;;;;;;13.00;13.00;;;;;23.59;47.34;102056.16;5095292;27;45306;-68
2022/08/08 05:52:23;;;;;;;;;15.33;13.00;;;;;23.16;47.49;102057.22;5086240;27;45456;-68
2022/08/08 05:54:48;;;;;;;;;15.33;14.00;;;;;22.75;48.38;102057.03;5089865;27;45164;-68
2022/08/08 05:57:15;;;;;;;;;13.00;13.00;;;;;22.67;49.23;102049.69;5085338;27;45419;-68
2022/08/08 05:59:46;;;;;;;;;14.50;14.25;;;;;22.64;49.19;102054.78;5095355;27;45325;-68
2022/08/08 06:05:28;;;;;;;;;14.00;13.67;;;;;22.37;50.29;102056.34;5038073;28;45604;-68
2022/08/08 06:07:54;;;;;;;;;15.00;13.00;;;;;22.26;51.03;102054.97;5020072;28;45495;-68
2022/08/08 06:10:21;;;;;;;;;12.50;12.50;;;;;22.34;50.62;102059.53;5052182;27;45688;-68
2022/08/08 06:12:46;;;;;;;;;10.00;9.67;;;;;22.43;50.17;102067.50;5098585;27;45688;-68
2022/08/08 06:15:12;;;;;;;;;14.33;11.67;;;;;22.53;49.81;102073.59;5095452;27;45265;-68
2022/08/08 06:17:39;;;;;;;;;12.00;10.00;;;;;22.55;50.24;102065.13;5079705;27;45203;-68
2022/08/08 06:20:08;;;;;;;;;11.00;11.00;;;;;22.63;49.42;102067.75;5077730;27;45773;-68
2022/08/08 06:22:33;;;;;;;;;9.33;8.00;;;;;22.98;48.87;102076.25;5102044;27;45442;-68
2022/08/08 06:24:59;;;;;;;;;12.00;11.67;;;;;23.60;47.48;102081.97;5072765;27;45826;-68
2022/08/08 06:27:55;;;;;;;;;12.33;10.00;;;;;23.98;46.53;102074.09;5090080;27;45161;-68
2022/08/08 06:30:21;;;;;;;;;13.00;13.00;;;;;24.23;45.33;102086.47;5055436;28;45274;-68
2022/08/08 06:32:49;;;;;;;;;10.67;10.67;;;;;24.34;44.78;102087.78;5086695;27;45378;-68
2022/08/08 06:35:16;;;;;;;;;10.00;10.00;;;;;24.24;44.58;102090.09;5076028;27;45915;-68
2022/08/08 06:37:53;;;;;;;;;10.00;8.00;;;;;23.83;45.42;102093.66;5100873;27;45335;-68
2022/08/08 06:40:21;;;;;;;;;9.00;9.00;;;;;23.58;45.45;102095.19;5089199;27;45413;-68
2022/08/08 06:42:55;;;;;;;;;11.33;11.33;;;;;23.61;46.30;102089.22;5083927;27;46292;-68
2022/08/08 06:45:22;;;;;;;;;11.00;11.00;;;;;23.61;45.93;102089.22;5094483;27;45244;-68
2022/08/08 06:47:49;;;;;;;;;8.00;8.00;;;;;23.44;46.98;102099.75;5086463;27;45195;-68
2022/08/08 06:50:14;;;;;;;;;14.33;14.00;;;;;23.38;46.66;102094.97;5075905;27;45628;-68
2022/08/08 06:52:41;;;;;;;;;10.33;10.33;;;;;23.73;45.93;102090.41;5089876;27;45460;-68
2022/08/08 06:55:07;;;;;;;;;8.00;8.00;;;;;23.97;45.59;102106.56;5095176;27;45254;-68
2022/08/08 06:57:33;;;;;;;;;10.33;10.33;;;;;23.76;45.61;102087.22;5068910;27;45498;-68
2022/08/08 06:59:59;;;;;;;;;12.33;10.67;;;;;23.91;45.47;102101.84;5095643;27;45353;-68
2022/08/08 07:02:27;;;;;;;;;10.67;10.33;;;;;24.19;45.04;102104.56;5086102;27;46275;-68
2022/08/08 07:05:00;;;;;;;;;11.00;11.00;;;;;24.34;43.87;102102.53;5094374;27;45365;-68
2022/08/08 07:07:41;;;;;;;;;10.67;10.33;;;;;24.52;43.58;102104.75;5086463;27;45329;-70
2022/08/08 07:10:09;;;;;;;;;12.33;10.67;;;;;23.99;43.98;102087.78;5100328;27;45379;-68
2022/08/08 07:12:38;;;;;;;;;10.67;8.33;;;;;24.12;44.68;102105.59;5086032;27;47256;-68
2022/08/08 07:15:14;;;;;;;;;13.33;8.00;;;;;24.18;44.00;102108.38;5094101;27;45412;-68
2022/08/08 07:17:49;;;;;;;;;9.67;9.00;;;;;24.30;43.74;102109.59;5087817;27;45392;-68
2022/08/08 07:20:21;;;;;;;;;10.33;10.33;;;;;24.46;43.54;102113.06;5099212;27;45538;-68
2022/08/08 07:22:52;;;;;;;;;13.00;11.33;;;;;24.39;43.18;102116.69;5092776;27;45485;-68
2022/08/08 07:25:20;;;;;;;;;10.67;10.00;;;;;24.41;43.76;102116.44;5089614;27;45396;-68
2022/08/08 07:27:48;;;;;;;;;12.00;11.00;;;;;24.29;43.53;102120.88;5099484;27;45436;-68
2022/08/08 07:30:14;;;;;;;;;14.00;12.33;;;;;24.42;43.09;102118.16;5071997;28;45338;-68
2022/08/08 07:32:40;;;;;;;;;14.00;12.67;;;;;24.32;43.34;102117.72;5085135;27;45568;-68
2022/08/08 07:35:05;;;;;;;;;14.00;11.00;;;;;24.42;43.78;102121.81;5098323;27;45457;-68
2022/08/08 07:37:32;;;;;;;;;14.00;12.33;;;;;24.52;43.25;102126.13;5085922;27;45336;-68
2022/08/08 07:40:00;;;;;;;;;9.33;8.00;;;;;24.76;42.63;102120.91;5075230;28;45414;-68
2022/08/08 07:42:26;;;;;;;;;8.67;8.67;;;;;25.00;42.41;102127.81;5076972;27;48664;-69
2022/08/08 07:44:51;;;;;;;;;11.00;10.67;;;;;24.82;42.39;102113.63;5075254;28;45255;-69
2022/08/08 07:47:16;;;;;;;;;14.33;12.33;;;;;24.82;42.79;102121.97;5083621;27;45289;-68
2022/08/08 07:49:42;;;;;;;;;12.00;9.67;;;;;24.99;42.42;102125.25;5093580;27;45492;-68
2022/08/08 07:52:11;;;;;;;;;10.00;9.00;;;;;25.09;41.67;102123.78;5092332;27;45232;-68
2022/08/08 07:54:46;;;;;;;;;11.67;11.33;;;;;25.10;41.58;102131.06;5094636;27;45329;-69
2022/08/08 07:57:30;;;;;;;;;9.33;9.00;;;;;25.21;41.83;102126.78;5083432;27;45419;-69
2022/08/08 08:00:04;;;;;;;;;9.33;7.33;;;;;25.65;40.86;102128.13;5097502;27;45302;-68
2022/08/08 08:02:38;;;;;;;;;9.00;8.67;;;;;25.45;40.59;102126.19;5101305;27;45360;-68
2022/08/08 08:05:11;;;;;;;;;6.33;6.33;;;;;25.51;40.49;102127.25;5094172;27;45422;-68
2022/08/08 08:07:38;;;;;;;;;10.00;8.00;;;;;25.83;39.93;102125.56;5085422;27;45255;-68
2022/08/08 08:10:04;;;;;;;;;10.33;9.00;;;;;25.76;39.87;102125.56;5080698;27;45448;-68
2022/08/08 08:12:29;;;;;;;;;7.33;7.33;;;;;25.71;40.08;102117.03;5084814;27;47662;-68
2022/08/08 08:15:05;;;;;;;;;9.67;9.00;;;;;25.96;39.87;102118.06;5093871;27;45467;-68
2022/08/08 08:17:44;;;;;;;;;10.00;9.67;;;;;25.69;40.04;102119.16;5094944;27;45427;-68
2022/08/08 08:20:10;;;;;;;;;5.33;5.33;;;;;26.27;39.24;102109.00;5085991;27;45276;-68
2022/08/08 08:22:35;;;;;;;;;10.67;7.67;;;;;26.70;37.54;102109.25;5084104;27;45402;-69
2022/08/08 08:25:00;;;;;;;;;7.67;6.33;;;;;27.00;37.76;102109.56;5056094;27;45522;-68
2022/08/08 08:27:26;;;;;;;;;5.00;5.00;;;;;27.22;36.63;102121.22;5088519;27;45944;-68
2022/08/08 08:29:51;;;;;;;;;9.00;7.00;;;;;27.05;36.70;102120.03;5085970;27;45165;-68
2022/08/08 08:32:16;;;;;;;;;8.67;7.33;;;;;26.97;36.66;102117.50;5086082;27;46608;-68
2022/08/08 08:34:42;;;;;;;;;7.00;7.00;;;;;27.22;36.49;102123.16;5101425;27;45391;-68
2022/08/08 08:37:07;;;;;;;;;8.00;8.00;;;;;27.37;36.43;102123.69;5090834;27;45608;-68
2022/08/08 08:39:33;;;;;;;;;8.67;6.67;;;;;27.02;35.88;102124.16;5078134;28;45561;-69
2022/08/08 08:42:00;;;;;;;;;10.00;8.67;;;;;26.67;36.76;102106.03;5096421;27;45354;-68
2022/08/08 08:44:26;;;;;;;;;8.33;6.67;;;;;27.06;36.86;102117.03;5092366;27;45385;-68
2022/08/08 08:46:53;;;;;;;;;10.33;10.00;;;;;27.62;36.14;102116.19;5082767;28;45265;-69
2022/08/08 08:49:18;;;;;;;;;13.00;13.00;;;;;27.02;36.51;102101.81;5094157;27;45232;-69
2022/08/08 08:51:45;;;;;;;;;7.00;7.00;;;;;27.37;36.18;102112.53;5082111;27;45354;-68
2022/08/08 08:54:12;;;;;;;;;12.67;8.00;;;;;27.44;35.72;102113.31;5090280;27;45472;-68
2022/08/08 08:56:39;;;;;;;;;9.67;8.00;;;;;27.82;35.59;102108.50;5084526;28;45253;-68
2022/08/08 08:59:05;;;;;;;;;6.33;6.00;;;;;28.33;34.80;102112.06;5090867;27;45393;-68
2022/08/08 09:01:35;;;;;;;;;7.00;7.00;;;;;28.66;34.10;102110.56;5097263;27;45522;-69
2022/08/08 09:04:08;;;;;;;;;5.33;5.00;;;;;28.48;33.03;102107.81;5099878;27;45447;-68
2022/08/08 09:06:40;;;;;;;;;9.00;8.33;;;;;28.70;32.95;102110.09;5090643;27;45494;-68
2022/08/08 09:09:11;;;;;;;;;7.33;6.67;;;;;28.62;32.67;102111.28;5084627;27;45475;-69
2022/08/08 09:11:37;;;;;;;;;17.50;17.25;;;;;28.92;32.49;102103.78;5096624;27;45284;-69
2022/08/08 09:14:03;;;;;;;;;9.67;6.33;;;;;29.35;32.29;102117.59;5094581;27;45448;-68
2022/08/08 09:16:29;;;;;;;;;8.33;8.33;;;;;29.61;31.53;102115.41;5094763;27;45393;-68
2022/08/08 09:18:56;;;;;;;;;9.00;8.00;;;;;28.91;31.77;102104.03;5091029;27;45571;-68
2022/08/08 09:21:22;;;;;;;;;6.67;6.33;;;;;29.26;31.91;102110.59;5094517;27;46394;-69
2022/08/08 09:23:48;;;;;;;;;5.67;4.33;;;;;29.11;31.23;102110.16;5088721;27;45418;-68
2022/08/08 09:26:41;;;;;;;;;8.33;8.33;;;;;29.50;31.24;102107.88;5091346;27;45306;-68
2022/08/08 09:29:07;;;;;;;;;7.67;7.67;;;;;29.92;29.62;102105.81;5090930;27;45503;-68
2022/08/08 09:31:59;;;;;;;;;7.00;5.33;;;;;29.84;30.25;102114.59;5093591;27;45483;-68
2022/08/08 09:34:30;;;;;;;;;9.33;6.67;;;;;30.14;29.40;102106.94;5101484;27;47055;-68
2022/08/08 09:37:01;;;;;;;;;7.00;5.00;;;;;30.26;27.98;102102.16;5095204;27;45387;-69
2022/08/08 09:39:34;;;;;;;;;5.67;4.33;;;;;30.32;28.55;102111.56;5096013;27;45407;-68
2022/08/08 09:42:02;;;;;;;;;4.00;4.00;;;;;30.93;27.06;102102.47;5067065;27;46755;-69
2022/08/08 09:44:30;;;;;;;;;5.00;5.00;;;;;31.34;26.62;102107.75;5097261;27;45376;-69
2022/08/08 09:46:56;;;;;;;;;8.00;5.67;;;;;31.65;26.85;102097.06;5098950;27;45243;-69
2022/08/08 09:49:21;;;;;;;;;5.67;5.67;;;;;31.10;26.42;102102.53;5096949;27;45521;-68
2022/08/08 09:51:51;;;;;;;;;4.00;4.00;;;;;31.46;26.51;102107.69;5083872;27;46959;-69
2022/08/08 09:54:21;;;;;;;;;5.67;5.67;;;;;31.47;25.99;102103.78;5101079;27;45584;-69
2022/08/08 09:56:53;;;;;;;;;8.00;8.00;;;;;31.55;26.16;102094.94;5087194;27;45314;-69
2022/08/08 09:59:25;;;;;;;;;5.67;5.67;;;;;32.19;25.32;102106.66;5099262;27;45168;-69
2022/08/08 10:01:58;;;;;;;;;5.67;5.67;;;;;32.22;24.70;102106.13;5086504;27;45460;-69
2022/08/08 10:04:26;;;;;;;;;7.00;5.00;;;;;32.10;24.92;102094.09;5080223;27;46651;-67
2022/08/08 10:06:52;;;;;;;;;8.67;7.00;;;;;31.63;25.55;102091.69;5075753;27;45393;-69
2022/08/08 10:09:40;;;;;;;;;6.00;6.00;;;;;31.67;25.16;102097.66;5094025;27;45602;-69
2022/08/08 10:12:06;;;;;;;;;6.00;6.00;;;;;31.89;25.69;102098.59;5084128;27;47348;-69
2022/08/08 10:14:37;;;;;;;;;6.00;5.00;;;;;31.83;25.25;102079.09;5094084;27;45241;-69
2022/08/08 10:17:07;;;;;;;;;3.00;3.00;;;;;32.20;25.12;102093.44;5089844;27;45404;-69
2022/08/08 10:19:38;;;;;;;;;3.67;3.67;;;;;32.16;24.36;102092.25;5075800;28;45361;-69
2022/08/08 10:22:05;;;;;;;;;6.67;6.67;;;;;32.20;24.86;102076.56;5087500;27;46427;-69
2022/08/08 10:24:35;;;;;;;;;7.33;7.33;;;;;32.27;24.42;102077.22;5073534;27;45302;-69
2022/08/08 10:27:03;;;;;;;;;6.67;5.67;;;;;32.56;24.34;102072.25;5092265;27;45331;-69
2022/08/08 10:29:51;;;;;;;;;7.33;6.67;;;;;32.62;24.21;102076.81;5091582;27;46102;-69
2022/08/08 10:32:36;;;;;;;;;6.33;6.00;;;;;33.55;23.35;102078.34;5091109;27;46576;-69
2022/08/08 10:35:14;;;;;;;;;7.33;6.67;;;;;33.67;23.30;102066.91;5101601;27;45402;-69
2022/08/08 10:37:57;;;;;;;;;4.00;4.00;;;;;33.98;23.07;102071.63;5098555;27;45503;-69
2022/08/08 10:40:25;;;;;;;;;6.33;6.33;;;;;34.35;22.05;102071.59;5093998;27;45498;-67
2022/08/08 10:43:01;;;;;;;;;6.67;6.67;;;;;33.03;23.13;102070.53;5079013;27;45743;-69
2022/08/08 10:45:28;;;;;;;;;8.00;8.00;;;;;33.11;23.30;102072.88;5093507;27;45469;-69
2022/08/08 10:47:59;;;;;;;;;7.67;7.67;;;;;32.90;23.73;102065.34;5085603;27;45471;-68
2022/08/08 10:50:34;;;;;;;;;7.00;7.00;;;;;33.50;23.38;102065.09;5093859;27;45473;-67
2022/08/08 10:53:02;;;;;;;;;7.00;6.00;;;;;34.05;23.27;102074.22;5089572;27;45481;-68
2022/08/08 10:55:27;;;;;;;;;4.00;4.00;;;;;34.17;21.60;102061.63;5074246;28;45469;-68
2022/08/08 10:57:53;;;;;;;;;9.00;8.00;;;;;34.07;21.96;102057.88;5085084;27;45224;-68
2022/08/08 11:00:24;;;;;;;;;5.00;5.00;;;;;33.65;22.54;102064.34;5093150;27;45313;-68
2022/08/08 11:02:50;;;;;;;;;7.67;6.00;;;;;33.69;22.95;102056.19;5087076;27;45681;-68
2022/08/08 11:05:16;;;;;;;;;7.00;6.00;;;;;34.08;22.30;102068.03;5104393;27;45435;-69
2022/08/08 11:07:47;;;;;;;;;7.33;7.33;;;;;34.88;21.35;102066.72;5097202;27;45416;-69
2022/08/08 11:10:16;;;;;;;;;7.67;6.67;;;;;35.19;21.49;102057.16;5098555;27;45398;-69
2022/08/08 11:12:45;;;;;;;;;7.00;5.67;;;;;35.25;20.76;102058.88;5101999;27;46144;-69
2022/08/08 11:15:15;;;;;;;;;5.33;4.00;;;;;35.23;20.03;102061.13;5086569;27;45208;-69
2022/08/08 11:17:41;;;;;;;;;4.67;4.67;;;;;34.93;21.46;102058.25;5086701;27;45366;-69
2022/08/08 11:20:12;;;;;;;;;7.00;6.00;;;;;34.94;21.86;102057.13;5094851;27;45426;-69
2022/08/08 11:22:39;;;;;;;;;5.67;5.67;;;;;35.48;20.40;102051.81;5095339;27;46147;-71
2022/08/08 11:25:09;;;;;;;;;6.67;6.00;;;;;35.74;20.06;102059.16;5080459;27;45391;-67
2022/08/08 11:27:36;;;;;;;;;6.00;6.00;;;;;34.76;21.24;102058.50;5090479;27;45169;-68
2022/08/08 11:30:06;;;;;;;;;23.75;20.50;;;;;35.01;21.42;102054.88;5090962;27;45557;-67
2022/08/08 11:32:36;;;;;;;;;9.67;9.33;;;;;35.33;20.87;102038.53;5095388;27;45406;-67
2022/08/08 11:35:12;;;;;;;;;13.67;7.33;;;;;35.73;19.72;102045.28;5096452;27;45362;-70
2022/08/08 11:37:41;;;;;;;;;8.33;7.00;;;;;36.12;19.16;102051.13;5097896;27;45425;-70
2022/08/08 11:40:10;;;;;;;;;5.00;5.00;;;;;35.33;20.07;102052.66;5094335;27;45380;-68
2022/08/08 11:42:37;;;;;;;;;7.00;6.00;;;;;34.81;20.59;102037.91;5091181;27;46209;-68
2022/08/08 11:45:05;;;;;;;;;4.67;4.67;;;;;34.78;19.97;102019.53;5091941;27;45404;-69
2022/08/08 11:47:32;;;;;;;;;5.33;5.33;;;;;34.80;19.65;102041.84;5085689;27;45417;-69
2022/08/08 11:50:09;;;;;;;;;4.33;4.33;;;;;34.83;19.22;102038.47;5085582;27;45418;-69